| time (UTC) | temp F | wind direction | speed MPH | gust MPH | rain 1hr in | rain 24hr in | rain mn in | humidity % | barometer mb |
| 20260509003718 | 60 | 113 | 1.0 | 3.0 | 0.00 | 0.00 | 0.00 | 63 | 1019.4 |
| 20260509002718 | 61 | 270 | 1.0 | 2.0 | 0.00 | 0.00 | 0.00 | 59 | 1019.3 |
| 20260509001718 | 61 | 338 | 3.0 | 6.0 | 0.00 | 0.00 | 0.00 | 58 | 1019.3 |
| 20260509000717 | 61 | 113 | 1.0 | 2.0 | 0.00 | 0.00 | 0.00 | 59 | 1019.2 |
| 20260508235718 | 62 | 203 | 2.0 | 4.0 | 0.00 | 0.00 | 0.00 | 58 | 1019.4 |
| 20260508234718 | 61 | 0.0 | 2.0 | 0.00 | 0.00 | 0.00 | 58 | 1019.4 | |
| 20260508233718 | 60 | 45 | 1.0 | 3.0 | 0.00 | 0.00 | 0.00 | 59 | 1019.3 |
| 20260508232718 | 60 | 90 | 2.0 | 5.0 | 0.00 | 0.00 | 0.00 | 62 | 1019.3 |
| 20260508231718 | 59 | 113 | 1.0 | 3.0 | 0.00 | 0.00 | 0.00 | 63 | 1019.2 |
| 20260508230738 | 58 | 135 | 1.0 | 4.0 | 0.00 | 0.00 | 0.00 | 65 | 1019.1 |
| 20260508225718 | 57 | 293 | 1.0 | 2.0 | 0.00 | 0.00 | 0.00 | 69 | 1019.1 |
| 20260508224718 | 56 | 113 | 2.0 | 3.0 | 0.00 | 0.00 | 0.00 | 70 | 1019.0 |
| 20260508223718 | 55 | 113 | 3.0 | 6.0 | 0.00 | 0.00 | 0.00 | 74 | 1018.9 |
| 20260508222718 | 55 | 90 | 2.0 | 6.0 | 0.00 | 0.00 | 0.00 | 74 | 1018.9 |
| 20260508221718 | 55 | 248 | 2.0 | 3.0 | 0.00 | 0.00 | 0.00 | 74 | 1018.7 |
| 20260508220738 | 55 | 113 | 4.0 | 8.0 | 0.00 | 0.00 | 0.00 | 75 | 1018.4 |
| 20260508215738 | 55 | 113 | 2.0 | 3.0 | 0.00 | 0.00 | 0.00 | 75 | 1018.2 |
| 20260508214718 | 55 | 158 | 2.0 | 4.0 | 0.00 | 0.00 | 0.00 | 74 | 1018.0 |
| 20260508213718 | 55 | 113 | 4.0 | 8.0 | 0.00 | 0.00 | 0.00 | 76 | 1017.9 |
| 20260508212738 | 54 | 113 | 4.0 | 6.0 | 0.00 | 0.00 | 0.00 | 78 | 1017.8 |
| 20260508211717 | 54 | 113 | 3.0 | 6.0 | 0.00 | 0.00 | 0.00 | 78 | 1017.9 |
| 20260508210717 | 54 | 113 | 1.0 | 2.0 | 0.00 | 0.00 | 0.00 | 79 | 1017.7 |
| 20260508205738 | 54 | 90 | 3.0 | 4.0 | 0.00 | 0.00 | 0.00 | 78 | 1017.6 |
| 20260508204718 | 54 | 113 | 2.0 | 3.0 | 0.00 | 0.00 | 0.00 | 79 | 1017.6 |
| 20260508203718 | 54 | 113 | 3.0 | 4.0 | 0.00 | 0.00 | 0.00 | 79 | 1017.6 |
| 20260508202717 | 54 | 113 | 3.0 | 4.0 | 0.00 | 0.00 | 0.00 | 78 | 1017.3 |
| 20260508201737 | 54 | 135 | 2.0 | 7.0 | 0.00 | 0.00 | 0.00 | 78 | 1017.2 |
| 20260508200717 | 55 | 113 | 4.0 | 7.0 | 0.00 | 0.00 | 0.00 | 76 | 1017.0 |
| 20260508195717 | 56 | 90 | 3.0 | 7.0 | 0.00 | 0.01 | 0.00 | 75 | 1016.9 |
| 20260508194717 | 56 | 135 | 3.0 | 5.0 | 0.00 | 0.02 | 0.00 | 74 | 1016.8 |
| 20260508193717 | 56 | 135 | 2.0 | 2.0 | 0.00 | 0.02 | 0.00 | 74 | 1016.8 |
| 20260508192718 | 57 | 113 | 3.0 | 5.0 | 0.00 | 0.02 | 0.00 | 73 | 1016.8 |
| 20260508191718 | 57 | 113 | 1.0 | 4.0 | 0.00 | 0.02 | 0.00 | 73 | 1016.7 |
| 20260508190717 | 57 | 135 | 7.0 | 11.0 | 0.00 | 0.02 | 0.00 | 73 | 1016.4 |
| 20260508185718 | 56 | 203 | 3.0 | 5.0 | 0.00 | 0.02 | 0.00 | 74 | 1016.4 |
| 20260508184718 | 55 | 113 | 6.0 | 9.0 | 0.00 | 0.02 | 0.00 | 76 | 1016.4 |
| 20260508183718 | 55 | 90 | 2.0 | 4.0 | 0.00 | 0.02 | 0.00 | 76 | 1016.2 |
| 20260508182717 | 55 | 113 | 4.0 | 8.0 | 0.00 | 0.02 | 0.00 | 76 | 1016.4 |
| 20260508181717 | 55 | 113 | 5.0 | 11.0 | 0.00 | 0.02 | 0.00 | 76 | 1016.3 |
| 20260508180718 | 55 | 113 | 5.0 | 8.0 | 0.00 | 0.02 | 0.00 | 75 | 1016.1 |
| 20260508175718 | 55 | 113 | 6.0 | 9.0 | 0.00 | 0.02 | 0.00 | 74 | 1016.2 |
| 20260508174718 | 55 | 158 | 3.0 | 5.0 | 0.00 | 0.02 | 0.00 | 75 | 1016.1 |
| 20260508173718 | 55 | 135 | 1.0 | 7.0 | 0.00 | 0.02 | 0.00 | 76 | 1015.8 |
| 20260508172718 | 54 | 113 | 2.0 | 3.0 | 0.00 | 0.02 | 0.00 | 77 | 1016.0 |
| 20260508171718 | 53 | 113 | 1.0 | 3.0 | 0.00 | 0.02 | 0.00 | 77 | 1016.0 |
| 20260508170718 | 53 | 113 | 3.0 | 6.0 | 0.00 | 0.02 | 0.00 | 77 | 1016.0 |
| 20260508165717 | 54 | 113 | 4.0 | 7.0 | 0.00 | 0.02 | 0.00 | 77 | 1016.2 |
| 20260508164717 | 53 | 135 | 6.0 | 10.0 | 0.00 | 0.02 | 0.00 | 77 | 1016.0 |
| 20260508163718 | 53 | 135 | 4.0 | 9.0 | 0.00 | 0.02 | 0.00 | 77 | 1016.1 |
| 20260508162718 | 53 | 135 | 4.0 | 6.0 | 0.00 | 0.02 | 0.00 | 76 | 1016.3 |
| 20260508161717 | 54 | 135 | 3.0 | 6.0 | 0.00 | 0.02 | 0.00 | 75 | 1016.1 |
| 20260508160717 | 54 | 113 | 2.0 | 5.0 | 0.00 | 0.02 | 0.00 | 75 | 1016.0 |
| 20260508155718 | 54 | 113 | 3.0 | 4.0 | 0.00 | 0.02 | 0.00 | 75 | 1016.3 |
| 20260508154717 | 54 | 135 | 3.0 | 5.0 | 0.00 | 0.02 | 0.00 | 75 | 1016.3 |
| 20260508153717 | 54 | 135 | 3.0 | 6.0 | 0.00 | 0.03 | 0.00 | 75 | 1016.2 |
| 20260508152717 | 54 | 135 | 3.0 | 7.0 | 0.00 | 0.03 | 0.00 | 75 | 1016.0 |
| 20260508151718 | 53 | 113 | 2.0 | 6.0 | 0.00 | 0.03 | 0.00 | 77 | 1015.8 |
| 20260508150717 | 52 | 203 | 2.0 | 3.0 | 0.00 | 0.03 | 0.00 | 77 | 1016.1 |
| 20260508145717 | 52 | 293 | 2.0 | 5.0 | 0.00 | 0.03 | 0.00 | 77 | 1015.7 |
| 20260508144758 | 53 | 90 | 3.0 | 6.0 | 0.00 | 0.03 | 0.00 | 75 | 1016.0 |
| 20260508143717 | 54 | 180 | 2.0 | 3.0 | 0.00 | 0.03 | 0.00 | 74 | 1015.8 |
| 20260508142717 | 53 | 270 | 1.0 | 3.0 | 0.00 | 0.03 | 0.00 | 75 | 1016.0 |
| 20260508141717 | 53 | 135 | 1.0 | 2.0 | 0.00 | 0.03 | 0.00 | 76 | 1016.1 |
| 20260508140737 | 53 | 90 | 2.0 | 4.0 | 0.00 | 0.03 | 0.00 | 74 | 1016.1 |
| 20260508135717 | 53 | 113 | 2.0 | 5.0 | 0.00 | 0.03 | 0.03 | 74 | 1016.0 |
| 20260508134717 | 53 | 45 | 1.0 | 3.0 | 0.00 | 0.03 | 0.03 | 73 | 1016.2 |
| 20260508133737 | 54 | 135 | 3.0 | 4.0 | 0.00 | 0.03 | 0.03 | 72 | 1016.0 |
| 20260508132717 | 54 | 68 | 2.0 | 3.0 | 0.00 | 0.03 | 0.03 | 73 | 1016.4 |
| 20260508131717 | 54 | 248 | 3.0 | 4.0 | 0.00 | 0.03 | 0.03 | 72 | 1016.5 |
| 20260508130717 | 54 | 68 | 1.0 | 3.0 | 0.00 | 0.03 | 0.03 | 72 | 1016.8 |
| 20260508125717 | 54 | 180 | 2.0 | 4.0 | 0.00 | 0.03 | 0.03 | 72 | 1016.8 |
| 20260508124717 | 54 | 293 | 1.0 | 2.0 | 0.00 | 0.05 | 0.03 | 72 | 1016.5 |
| 20260508123717 | 54 | 45 | 1.0 | 2.0 | 0.00 | 0.05 | 0.03 | 72 | 1016.7 |
| 20260508122737 | 54 | 225 | 2.0 | 8.0 | 0.00 | 0.06 | 0.03 | 72 | 1016.7 |
| 20260508121717 | 54 | 180 | 4.0 | 8.0 | 0.00 | 0.06 | 0.03 | 72 | 1016.7 |
| 20260508120717 | 54 | 315 | 1.0 | 2.0 | 0.00 | 0.06 | 0.03 | 73 | 1016.8 |
| 20260508115717 | 53 | 45 | 4.0 | 7.0 | 0.00 | 0.06 | 0.03 | 73 | 1016.7 |
| 20260508114717 | 53 | 135 | 2.0 | 5.0 | 0.00 | 0.08 | 0.03 | 74 | 1016.7 |
| 20260508113717 | 53 | 90 | 3.0 | 8.0 | 0.00 | 0.09 | 0.03 | 74 | 1016.6 |
| 20260508112737 | 54 | 68 | 3.0 | 5.0 | 0.00 | 0.09 | 0.03 | 73 | 1016.1 |
| 20260508111717 | 54 | 135 | 3.0 | 6.0 | 0.00 | 0.09 | 0.03 | 72 | 1015.9 |
| 20260508110717 | 53 | 315 | 2.0 | 5.0 | 0.00 | 0.11 | 0.03 | 73 | 1015.8 |
| 20260508105737 | 53 | 135 | 3.0 | 7.0 | 0.00 | 0.12 | 0.03 | 73 | 1015.7 |
| 20260508104717 | 53 | 135 | 4.0 | 7.0 | 0.00 | 0.12 | 0.03 | 73 | 1015.8 |
| 20260508103717 | 52 | 248 | 3.0 | 4.0 | 0.00 | 0.12 | 0.03 | 73 | 1015.8 |
| 20260508102737 | 52 | 68 | 1.0 | 2.0 | 0.00 | 0.12 | 0.03 | 74 | 1015.9 |
| 20260508101717 | 52 | 158 | 1.0 | 3.0 | 0.00 | 0.12 | 0.03 | 73 | 1015.9 |
| 20260508100717 | 53 | 113 | 3.0 | 7.0 | 0.00 | 0.12 | 0.03 | 72 | 1016.0 |
| 20260508095717 | 53 | 203 | 4.0 | 10.0 | 0.00 | 0.12 | 0.03 | 72 | 1015.7 |
| 20260508094717 | 53 | 270 | 3.0 | 7.0 | 0.00 | 0.12 | 0.03 | 72 | 1015.6 |
| 20260508093716 | 52 | 225 | 4.0 | 7.0 | 0.00 | 0.12 | 0.03 | 72 | 1015.5 |
| 20260508092716 | 52 | 180 | 3.0 | 5.0 | 0.00 | 0.12 | 0.03 | 73 | 1015.1 |
| 20260508091737 | 52 | 248 | 2.0 | 4.0 | 0.00 | 0.12 | 0.03 | 73 | 1015.3 |
| 20260508090717 | 53 | 225 | 2.0 | 4.0 | 0.00 | 0.12 | 0.03 | 73 | 1015.4 |
| 20260508085737 | 53 | 248 | 3.0 | 9.0 | 0.00 | 0.12 | 0.03 | 73 | 1015.4 |
| 20260508084716 | 52 | 180 | 3.0 | 6.0 | 0.00 | 0.12 | 0.03 | 75 | 1015.6 |
| 20260508083737 | 53 | 135 | 2.0 | 3.0 | 0.00 | 0.12 | 0.03 | 75 | 1015.7 |
| 20260508082737 | 53 | 225 | 6.0 | 10.0 | 0.00 | 0.12 | 0.03 | 76 | 1015.8 |
| 20260508081757 | 53 | 248 | 2.0 | 6.0 | 0.00 | 0.12 | 0.03 | 76 | 1015.7 |
| 20260508080717 | 53 | 203 | 3.0 | 4.0 | 0.00 | 0.12 | 0.03 | 76 | 1015.7 |
| 20260508075716 | 53 | 203 | 3.0 | 11.0 | 0.00 | 0.12 | 0.03 | 77 | 1015.8 |
| 20260508074716 | 53 | 248 | 3.0 | 9.0 | 0.00 | 0.12 | 0.03 | 77 | 1015.5 |
| 20260508073737 | 53 | 203 | 3.0 | 9.0 | 0.00 | 0.12 | 0.03 | 77 | 1015.3 |
| 20260508072717 | 53 | 203 | 1.0 | 1.0 | 0.00 | 0.12 | 0.03 | 77 | 1015.3 |
| 20260508071716 | 52 | 135 | 1.0 | 2.0 | 0.00 | 0.12 | 0.03 | 78 | 1015.2 |
| 20260508070717 | 52 | 203 | 3.0 | 5.0 | 0.00 | 0.12 | 0.03 | 77 | 1015.1 |
| 20260508065717 | 53 | 225 | 2.0 | 4.0 | 0.00 | 0.12 | 0.03 | 77 | 1014.8 |
| 20260508064716 | 53 | 180 | 3.0 | 9.0 | 0.00 | 0.12 | 0.03 | 77 | 1014.8 |
| 20260508063736 | 53 | 180 | 3.0 | 6.0 | 0.00 | 0.12 | 0.03 | 78 | 1014.8 |
| 20260508062736 | 54 | 248 | 2.0 | 5.0 | 0.00 | 0.12 | 0.03 | 78 | 1014.8 |
| 20260508061717 | 54 | 180 | 3.0 | 6.0 | 0.00 | 0.12 | 0.03 | 77 | 1014.6 |
| 20260508060716 | 54 | 203 | 3.0 | 7.0 | 0.00 | 0.12 | 0.03 | 77 | 1014.6 |
| 20260508055717 | 55 | 180 | 2.0 | 6.0 | 0.00 | 0.12 | 0.03 | 76 | 1014.4 |
| 20260508054717 | 55 | 225 | 2.0 | 4.0 | 0.00 | 0.12 | 0.03 | 75 | 1014.1 |
| 20260508053716 | 56 | 203 | 1.0 | 2.0 | 0.00 | 0.12 | 0.03 | 75 | 1013.9 |
| 20260508052717 | 56 | 270 | 4.0 | 6.0 | 0.00 | 0.12 | 0.03 | 75 | 1013.8 |
| 20260508051717 | 55 | 225 | 1.0 | 2.0 | 0.00 | 0.12 | 0.03 | 77 | 1013.7 |
| 20260508050716 | 54 | 180 | 2.0 | 4.0 | 0.00 | 0.12 | 0.03 | 76 | 1013.7 |
| 20260508045716 | 54 | 180 | 3.0 | 5.0 | 0.00 | 0.12 | 0.03 | 76 | 1013.6 |
| 20260508044717 | 55 | 203 | 3.0 | 6.0 | 0.00 | 0.12 | 0.03 | 76 | 1013.5 |
| 20260508043717 | 55 | 225 | 2.0 | 5.0 | 0.00 | 0.12 | 0.03 | 76 | 1013.3 |
| 20260508042716 | 55 | 180 | 2.0 | 4.0 | 0.00 | 0.12 | 0.03 | 76 | 1013.2 |
| 20260508041716 | 55 | 203 | 2.0 | 3.0 | 0.00 | 0.12 | 0.03 | 74 | 1013.1 |
| 20260508040717 | 55 | 203 | 1.0 | 3.0 | 0.00 | 0.12 | 0.03 | 74 | 1013.0 |
| 20260508035716 | 55 | 203 | 3.0 | 4.0 | 0.00 | 0.12 | 0.03 | 73 | 1012.9 |
| 20260508034716 | 56 | 270 | 3.0 | 4.0 | 0.00 | 0.12 | 0.03 | 72 | 1012.8 |
| 20260508033717 | 56 | 225 | 2.0 | 3.0 | 0.00 | 0.12 | 0.03 | 70 | 1013.0 |
| 20260508032716 | 56 | 158 | 3.0 | 7.0 | 0.00 | 0.12 | 0.03 | 71 | 1012.9 |
| 20260508031716 | 56 | 203 | 3.0 | 6.0 | 0.00 | 0.12 | 0.03 | 71 | 1013.0 |
| 20260508030757 | 55 | 180 | 2.0 | 4.0 | 0.00 | 0.12 | 0.03 | 71 | 1012.8 |
| 20260508025717 | 55 | 225 | 2.0 | 3.0 | 0.00 | 0.12 | 0.03 | 73 | 1012.9 |
| 20260508024717 | 55 | 203 | 5.0 | 7.0 | 0.00 | 0.12 | 0.03 | 71 | 1012.7 |
| 20260508023737 | 55 | 180 | 3.0 | 7.0 | 0.00 | 0.12 | 0.03 | 72 | 1012.7 |
| 20260508022717 | 55 | 203 | 7.0 | 11.0 | 0.00 | 0.12 | 0.03 | 70 | 1012.8 |
| 20260508021716 | 55 | 180 | 3.0 | 5.0 | 0.00 | 0.12 | 0.03 | 69 | 1012.6 |
| 20260508020717 | 55 | 180 | 6.0 | 11.0 | 0.00 | 0.12 | 0.03 | 69 | 1012.5 |
| 20260508015716 | 55 | 203 | 3.0 | 7.0 | 0.00 | 0.12 | 0.03 | 69 | 1012.6 |
| 20260508014716 | 55 | 180 | 4.0 | 6.0 | 0.00 | 0.12 | 0.03 | 67 | 1012.5 |
| 20260508013716 | 55 | 135 | 3.0 | 9.0 | 0.00 | 0.12 | 0.03 | 69 | 1012.5 |
| 20260508012716 | 55 | 203 | 4.0 | 9.0 | 0.00 | 0.12 | 0.03 | 70 | 1012.3 |
| 20260508011737 | 54 | 203 | 3.0 | 7.0 | 0.00 | 0.12 | 0.03 | 72 | 1012.3 |
| 20260508010717 | 53 | 180 | 6.0 | 12.0 | 0.00 | 0.12 | 0.03 | 73 | 1012.3 |
| 20260508005716 | 53 | 203 | 5.0 | 10.0 | 0.00 | 0.12 | 0.03 | 73 | 1012.1 |
| 20260508004716 | 53 | 248 | 6.0 | 9.0 | 0.00 | 0.12 | 0.03 | 73 | 1012.0 |